Ellsworth, ME (04605)

8:18 PM EST on February 10, 2016 (GMT -0500)
Peggy Rockefeller Farm | | Change Station
CLOSE
Current Station
Personal Weather Station
Location: Bar Harbor, ME
Elevation: 39 ft
Nearby Weather Stations

Elev 39 ft 44.41 °N, 68.30 °W | Updated 11 seconds ago

Overcast
Overcast
29.3 °F
Feels Like 29 °F
N
0.0
Wind Variable Wind from NNE
Gusts 0.0 mph

Today
High -- | Low -- °F
--% Chance of Precip.
Yesterday
High -- | Low -- °F
Precip. -- in
Pressure 29.57 in
Visibility 9.0 miles
Clouds Few 3100 ft
Mostly Cloudy 3900 ft
Overcast 5000 ft
Windchill 29 °F
Dew Point 28 °F
Humidity 95%
Rainfall 0.02 in
Snow Depth Not available.
6:41 AM 4:54 PM
Waxing Crescent, 8% visible
METAR KBHB 110115Z 00000KT 9SM FEW031 BKN039 OVC050 M02/M02 A2957 RMK AO1
Pressure 29.57 in
Visibility 9.0 miles
Clouds Few 3100 ft
Mostly Cloudy 3900 ft
Overcast 5000 ft
Windchill 29 °F
Dew Point 28 °F
Humidity 95%
Rainfall 0.02 in
Snow Depth Not available.
6:41 AM 4:54 PM
Waxing Crescent, 8% visible
METAR KBHB 110115Z 00000KT 9SM FEW031 BKN039 OVC050 M02/M02 A2957 RMK AO1

10-Day Weather Forecast

Almanac

Astronomy

Feb. 10, 2016 Rise Set
Actual Time
Civil Twilight
Nautical Twilight
Astronomical Twilight
Moon
Length of Visible Light
Length of Day
Tomorrow will be .
, % of the Moon is Illuminated

Today's Extremes

State Highs State Lows

Community

WunderPhotos

Upload Photos

1,891,961 photos uploaded!

WunderBlog® & News

Nearby

Air Quality

  Air Quality AQ Index Pollutant
Not available.

Snow Depth

Station Depth Elevation

Earthquake Activity

City Distance Mag. Time & Date
Minimum magnitude displayed is 2.5.

Coastal Water Temperatures

Place Temperature

Stations

Nearby Weather Stations

Station Location Temp. Windchill Dew Point Humidity Wind Precip. Elev Updated Type
                   

Watches & Warnings

There are currently no watches in effect.